Time;durP1;ratioP1;P1;durP2;ratioP2;P2;SDS_P1;SDS_P2;PMS_P1;PMS_P2;Temp;Humidity;BMP_temperature;BMP_pressure;BME280_temperature;BME280_humidity;BME280_pressure;Samples;Min_cycle;Max_cycle;Signal;HPM_P1;HPM_P2
2021/12/24 00:01:20;;;;;;;35.38;14.43;;;;;;;-0.46;92.85;93472.84;4822985;29;20139;-59
2021/12/24 00:03:47;;;;;;;32.72;13.85;;;;;;;-0.53;92.90;93471.91;4824279;29;20057;-60
2021/12/24 00:06:14;;;;;;;38.13;15.17;;;;;;;-0.62;93.47;93469.44;4832722;29;20475;-60
2021/12/24 00:08:44;;;;;;;33.78;13.77;;;;;;;-0.71;93.84;93472.34;4842180;29;20046;-59
2021/12/24 00:11:11;;;;;;;29.95;13.68;;;;;;;-0.69;93.58;93467.38;4840525;29;20053;-60
2021/12/24 00:13:42;;;;;;;31.13;12.70;;;;;;;-0.76;93.13;93463.78;4842389;29;20042;-60
2021/12/24 00:18:46;;;;;;;28.70;12.00;;;;;;;-0.71;93.29;93450.78;4842432;29;20056;-60
2021/12/24 00:35:13;;;;;;;39.88;15.80;;;;;;;-0.66;93.76;93449.75;4820182;29;20081;-59
2021/12/24 00:37:43;;;;;;;38.83;15.07;;;;;;;-0.58;93.24;93442.53;4822585;29;20043;-60
2021/12/24 00:40:18;;;;;;;35.50;14.90;;;;;;;-0.57;92.90;93428.72;4822824;29;20059;-60
2021/12/24 00:42:51;;;;;;;39.17;15.45;;;;;;;-0.49;93.28;93424.25;4823551;29;20386;-60
2021/12/24 00:45:21;;;;;;;36.23;15.13;;;;;;;-0.45;93.10;93417.78;4822540;29;20388;-60
2021/12/24 00:47:49;;;;;;;42.33;17.50;;;;;;;-0.54;92.03;93408.34;4822157;29;20054;-60
2021/12/24 00:50:20;;;;;;;45.17;19.42;;;;;;;-0.56;92.21;93406.03;4822437;29;20077;-60
2021/12/24 00:52:50;;;;;;;41.35;16.35;;;;;;;-0.52;92.30;93398.03;4823154;29;20397;-60
2021/12/24 00:55:20;;;;;;;37.45;15.70;;;;;;;-0.55;92.25;93398.72;4822283;29;20047;-59
2021/12/24 00:57:51;;;;;;;32.87;14.03;;;;;;;-0.57;92.68;93395.59;4823094;29;20331;-60
2021/12/24 01:00:43;;;;;;;38.55;15.73;;;;;;;-0.82;93.11;93399.41;4822538;29;20050;-60
2021/12/24 01:03:11;;;;;;;35.42;14.52;;;;;;;-0.74;93.29;93391.47;4836288;29;20385;-60
2021/12/24 01:05:39;;;;;;;30.98;12.73;;;;;;;-0.77;93.03;93389.47;4827760;29;20046;-59
2021/12/24 01:08:08;;;;;;;28.63;12.85;;;;;;;-0.81;93.57;93392.09;4840659;29;20052;-59
2021/12/24 01:10:42;;;;;;;32.63;13.43;;;;;;;-0.88;93.41;93391.97;4841366;29;20058;-60
2021/12/24 01:13:09;;;;;;;36.20;14.48;;;;;;;-1.03;94.55;93398.97;4840809;29;20054;-59
2021/12/24 01:15:42;;;;;;;46.65;17.67;;;;;;;-0.98;94.75;93398.69;4841193;29;20075;-60
2021/12/24 01:18:29;;;;;;;39.25;16.05;;;;;;;-1.07;94.47;93371.97;4840960;29;20090;-59
2021/12/24 01:23:48;;;;;;;34.70;14.03;;;;;;;-1.16;95.94;93371.41;4839826;29;21922;-60
2021/12/24 01:26:31;;;;;;;31.33;13.23;;;;;;;-1.04;95.49;93362.41;4840373;29;20415;-60
2021/12/24 01:40:22;;;;;;;29.02;10.75;;;;;;;-0.09;96.34;93364.44;4840395;29;20496;-58
2021/12/24 01:42:50;;;;;;;29.10;11.65;;;;;;;-0.07;95.10;93361.41;4840089;29;20409;-60
2021/12/24 01:45:25;;;;;;;50.90;16.50;;;;;;;-0.22;95.38;93366.56;4840230;29;20060;-59
2021/12/24 01:47:54;;;;;;;37.85;13.52;;;;;;;-0.22;95.19;93363.88;4839288;29;20050;-60
2021/12/24 01:50:23;;;;;;;26.03;11.33;;;;;;;-0.09;94.50;93360.97;4840144;29;20042;-60
2021/12/24 01:52:51;;;;;;;27.48;11.95;;;;;;;-0.21;94.75;93367.34;4839569;29;20068;-60
2021/12/24 01:55:18;;;;;;;32.58;12.05;;;;;;;-0.28;94.61;93364.53;4839975;29;20053;-59
2021/12/24 01:57:46;;;;;;;26.58;11.55;;;;;;;-0.48;94.57;93361.91;4840492;29;20480;-59
2021/12/24 02:00:20;;;;;;;31.83;13.77;;;;;;;-0.31;94.31;93359.84;4839693;29;20050;-59
2021/12/24 02:02:48;;;;;;;28.33;11.77;;;;;;;-0.21;94.44;93362.72;4840480;29;20105;-59
2021/12/24 02:05:16;;;;;;;26.48;10.93;;;;;;;-0.15;95.42;93349.72;4839619;29;20054;-59
2021/12/24 02:07:43;;;;;;;23.45;10.55;;;;;;;0.04;94.80;93356.16;4840338;29;20551;-59
2021/12/24 02:10:12;;;;;;;25.00;9.88;;;;;;;0.13;94.29;93352.06;4839827;29;20050;-59
2021/12/24 02:12:39;;;;;;;23.15;10.13;;;;;;;0.19;94.28;93352.53;4838904;29;20058;-60
2021/12/24 02:15:13;;;;;;;23.50;9.33;;;;;;;0.14;94.22;93350.16;4839577;29;20054;-59
2021/12/24 02:28:45;;;;;;;24.20;10.83;;;;;;;0.17;93.43;93327.84;4840384;29;20050;-59
2021/12/24 02:31:16;;;;;;;27.75;11.18;;;;;;;0.21;93.58;93317.88;4839182;29;20064;-59
2021/12/24 02:33:43;;;;;;;23.63;9.77;;;;;;;0.28;94.16;93326.09;4811134;29;20085;-60
2021/12/24 02:36:11;;;;;;;17.95;8.73;;;;;;;0.37;94.18;93318.47;4815252;29;20080;-59
2021/12/24 02:38:39;;;;;;;27.38;11.77;;;;;;;0.33;93.28;93322.28;4821192;29;20056;-60
2021/12/24 02:41:08;;;;;;;23.57;10.67;;;;;;;-0.03;94.45;93319.06;4821180;29;20390;-59
2021/12/24 02:43:36;;;;;;;25.25;10.98;;;;;;;0.03;95.20;93314.16;4835067;29;20042;-59
2021/12/24 02:46:10;;;;;;;25.80;10.98;;;;;;;0.09;95.05;93316.16;4821053;29;20058;-58
2021/12/24 02:54:13;;;;;;;23.20;10.40;;;;;;;0.42;93.87;93306.59;4820825;29;20050;-59
2021/12/24 02:56:45;;;;;;;24.88;10.90;;;;;;;0.36;93.21;93299.94;4821287;29;20046;-60
2021/12/24 02:59:14;;;;;;;23.10;10.77;;;;;;;0.50;92.64;93297.44;4820917;29;20061;-59
2021/12/24 03:01:46;;;;;;;25.05;10.88;;;;;;;0.53;93.04;93295.94;4821184;29;20043;-60
2021/12/24 03:04:14;;;;;;;25.13;11.30;;;;;;;0.58;92.52;93296.41;4820789;29;20057;-59
2021/12/24 03:06:47;;;;;;;21.67;9.93;;;;;;;0.62;92.18;93299.13;4833733;29;20068;-60
2021/12/24 03:09:16;;;;;;;21.38;10.00;;;;;;;0.65;92.04;93286.81;4838948;29;20058;-59
2021/12/24 03:11:45;;;;;;;23.55;10.20;;;;;;;0.51;92.35;93293.59;4839529;29;20054;-59
2021/12/24 03:14:15;;;;;;;22.77;9.90;;;;;;;0.33;92.75;93295.28;4839119;29;20060;-59
2021/12/24 03:16:45;;;;;;;22.08;10.00;;;;;;;0.23;93.59;93280.50;4839203;29;20058;-59
2021/12/24 03:19:13;;;;;;;22.43;9.97;;;;;;;0.42;93.12;93281.50;4838845;29;20061;-59
2021/12/24 03:21:54;;;;;;;21.58;9.35;;;;;;;0.52;92.93;93283.56;4839087;29;20077;-59
2021/12/24 03:26:48;;;;;;;19.90;9.88;;;;;;;0.52;92.74;93275.47;4838980;29;20050;-59
2021/12/24 03:29:17;;;;;;;23.73;9.50;;;;;;;0.55;92.20;93270.13;4838888;29;20060;-59
2021/12/24 03:31:46;;;;;;;21.90;9.80;;;;;;;0.47;93.15;93249.59;4838630;29;20054;-60
2021/12/24 03:34:19;;;;;;;21.67;9.73;;;;;;;0.44;93.54;93249.53;4804122;29;20059;-59
2021/12/24 03:36:46;;;;;;;21.63;9.98;;;;;;;0.39;93.67;93237.16;4819588;29;20060;-59
2021/12/24 03:39:14;;;;;;;29.98;11.02;;;;;;;0.39;93.30;93245.25;4820339;29;20408;-59
2021/12/24 03:41:41;;;;;;;43.75;13.13;;;;;;;0.46;93.31;93244.53;4820556;29;20054;-60
2021/12/24 03:44:10;;;;;;;25.37;9.80;;;;;;;0.33;93.31;93246.72;4820153;29;20046;-59
2021/12/24 03:47:01;;;;;;;23.23;10.30;;;;;;;0.29;93.87;93245.91;4820625;29;20416;-60
2021/12/24 03:49:36;;;;;;;20.30;9.20;;;;;;;0.33;94.22;93252.13;4819928;29;21428;-59
2021/12/24 03:57:30;;;;;;;22.53;8.87;;;;;;;0.54;94.17;93241.59;4819408;29;20682;-59
2021/12/24 03:59:59;;;;;;;21.55;9.77;;;;;;;0.56;93.88;93235.78;4820965;29;20057;-59
2021/12/24 04:02:26;;;;;;;20.38;9.48;;;;;;;0.55;93.24;93247.75;4819815;29;20131;-59
2021/12/24 04:04:53;;;;;;;23.85;8.77;;;;;;;0.58;93.48;93239.69;4822015;29;20060;-60
2021/12/24 04:07:20;;;;;;;22.00;9.55;;;;;;;0.73;92.98;93247.94;4841194;29;20094;-59
2021/12/24 04:10:02;;;;;;;21.00;9.47;;;;;;;0.95;92.72;93244.31;4842304;29;20058;-60
2021/12/24 04:12:29;;;;;;;21.33;9.07;;;;;;;1.12;91.96;93242.16;4841144;29;20847;-59
2021/12/24 04:14:56;;;;;;;21.08;9.00;;;;;;;1.20;91.19;93241.84;4842503;29;20053;-60
2021/12/24 04:17:23;;;;;;;19.80;8.77;;;;;;;1.28;91.22;93229.16;4855427;29;20425;-61
2021/12/24 04:25:21;;;;;;;20.88;9.73;;;;;;;1.47;89.89;93227.38;4841409;29;20054;-61
2021/12/24 04:27:49;;;;;;;22.45;9.60;;;;;;;1.49;89.88;93220.47;4842211;29;20050;-61
2021/12/24 04:30:22;;;;;;;22.27;10.32;;;;;;;1.47;89.58;93224.69;4841668;29;20050;-60
2021/12/24 04:51:33;;;;;;;22.80;10.75;;;;;;;1.45;89.40;93226.97;4839558;29;20653;-60
2021/12/24 05:04:49;;;;;;;46.55;20.30;;;;;;;1.60;89.36;93223.25;4841170;29;20050;-59
2021/12/24 05:09:49;;;;;;;27.38;13.07;;;;;;;1.37;90.25;93226.19;4841179;29;20050;-61
2021/12/24 05:12:16;;;;;;;25.95;11.65;;;;;;;1.38;90.05;93225.00;4839619;29;20058;-60
2021/12/24 05:14:43;;;;;;;26.63;12.00;;;;;;;1.12;90.80;93228.66;4841006;29;20054;-60
2021/12/24 05:17:30;;;;;;;26.08;11.40;;;;;;;1.38;90.16;93217.66;4840390;29;20050;-59
2021/12/24 05:22:42;;;;;;;23.40;11.15;;;;;;;1.39;89.42;93210.34;4840086;29;20585;-59
2021/12/24 05:25:09;;;;;;;24.95;11.77;;;;;;;1.46;89.56;93223.91;4840342;29;20050;-60
2021/12/24 05:27:36;;;;;;;25.90;12.37;;;;;;;1.39;89.63;93230.06;4840644;29;20057;-60
2021/12/24 05:30:04;;;;;;;27.13;12.40;;;;;;;1.45;89.38;93221.56;4840367;29;20054;-60
2021/12/24 05:32:31;;;;;;;23.40;11.07;;;;;;;1.30;89.74;93218.00;4840403;29;20118;-61
2021/12/24 05:34:58;;;;;;;24.98;11.25;;;;;;;1.37;89.65;93226.94;4840876;29;20056;-61
2021/12/24 05:37:25;;;;;;;23.83;10.95;;;;;;;1.34;89.39;93222.28;4839922;29;20407;-59
2021/12/24 05:39:51;;;;;;;24.80;11.00;;;;;;;1.35;89.58;93228.47;4839470;29;20372;-61
2021/12/24 05:42:19;;;;;;;27.88;12.23;;;;;;;1.34;89.21;93230.38;4840227;29;20058;-62
2021/12/24 05:44:45;;;;;;;24.45;11.63;;;;;;;1.41;89.47;93226.97;4840534;29;20049;-61
2021/12/24 05:47:12;;;;;;;27.10;11.77;;;;;;;1.31;89.77;93227.63;4840050;29;20069;-60
2021/12/24 05:49:41;;;;;;;23.77;11.48;;;;;;;1.35;89.53;93221.13;4839160;29;20060;-61
2021/12/24 05:52:08;;;;;;;26.17;12.10;;;;;;;1.17;89.85;93223.69;4840234;29;20042;-61
2021/12/24 05:54:35;;;;;;;24.70;11.48;;;;;;;1.33;89.39;93226.13;4840271;29;20061;-60
2021/12/24 05:57:02;;;;;;;24.90;11.73;;;;;;;1.43;89.24;93224.69;4840078;29;20488;-61
2021/12/24 05:59:28;;;;;;;23.95;11.48;;;;;;;1.44;88.77;93237.03;4838970;29;20045;-61
2021/12/24 06:01:55;;;;;;;24.88;11.50;;;;;;;1.47;88.61;93230.88;4818543;29;20054;-62
2021/12/24 06:04:22;;;;;;;23.30;11.20;;;;;;;1.49;88.47;93233.19;4810631;29;20119;-60
2021/12/24 06:06:49;;;;;;;23.45;11.48;;;;;;;1.18;89.44;93232.56;4830825;29;20072;-61
2021/12/24 06:09:15;;;;;;;27.70;12.73;;;;;;;1.05;90.57;93245.56;4839745;29;20054;-60
2021/12/24 06:11:42;;;;;;;30.63;15.05;;;;;;;1.14;90.15;93237.94;4840267;29;20101;-61
2021/12/24 06:14:11;;;;;;;26.58;13.05;;;;;;;1.09;90.59;93240.22;4839894;29;20053;-60
2021/12/24 06:16:48;;;;;;;22.27;11.87;;;;;;;1.17;89.93;93245.31;4839976;29;20128;-61
2021/12/24 06:19:16;;;;;;;27.98;12.27;;;;;;;1.30;90.04;93236.91;4839600;29;20117;-61
2021/12/24 06:21:45;;;;;;;28.80;13.30;;;;;;;1.39;89.70;93237.38;4838281;29;20058;-61
2021/12/24 06:24:13;;;;;;;30.00;14.63;;;;;;;1.46;89.11;93228.56;4839102;29;20081;-60
2021/12/24 06:26:40;;;;;;;26.98;12.15;;;;;;;1.39;89.28;93229.28;4839618;29;20084;-59
2021/12/24 06:29:06;;;;;;;21.47;10.63;;;;;;;1.39;89.38;93230.06;4839057;29;20056;-58
2021/12/24 06:31:33;;;;;;;23.15;11.48;;;;;;;1.34;89.51;93227.69;4839649;29;20046;-59
2021/12/24 06:34:00;;;;;;;25.98;10.93;;;;;;;1.32;89.31;93219.16;4838068;29;20054;-60
2021/12/24 06:36:27;;;;;;;25.85;11.82;;;;;;;1.17;89.81;93223.69;4838459;29;20048;-60
2021/12/24 06:38:54;;;;;;;30.50;14.93;;;;;;;1.30;89.82;93215.28;4839432;29;20054;-59
2021/12/24 06:41:20;;;;;;;27.70;12.63;;;;;;;1.40;89.13;93212.66;4839354;29;20193;-58
2021/12/24 06:43:47;;;;;;;24.05;10.82;;;;;;;1.48;89.08;93227.03;4839418;29;20443;-59
2021/12/24 06:46:14;;;;;;;22.25;10.88;;;;;;;1.39;89.05;93223.88;4839118;29;20114;-59
2021/12/24 06:48:41;;;;;;;25.90;11.75;;;;;;;1.26;89.56;93223.38;4839216;29;20053;-59
2021/12/24 06:51:09;;;;;;;22.42;11.00;;;;;;;1.25;90.04;93224.53;4839042;29;20080;-58
2021/12/24 06:53:35;;;;;;;24.77;11.47;;;;;;;1.32;90.07;93226.50;4839170;29;20058;-60
2021/12/24 06:56:03;;;;;;;26.80;12.00;;;;;;;1.36;90.11;93228.06;4839061;29;20081;-58
2021/12/24 06:58:30;;;;;;;23.33;11.65;;;;;;;1.43;89.43;93235.50;4838748;29;20075;-59
2021/12/24 07:00:57;;;;;;;25.17;12.82;;;;;;;1.43;89.60;93232.78;4838756;29;20045;-60
2021/12/24 07:03:23;;;;;;;26.58;13.68;;;;;;;1.37;89.70;93234.28;4838326;29;20434;-59
2021/12/24 07:05:50;;;;;;;24.47;11.67;;;;;;;1.52;89.32;93233.22;4837705;29;20065;-59
2021/12/24 07:08:17;;;;;;;20.88;9.85;;;;;;;1.43;90.21;93234.69;4838644;29;20050;-58
2021/12/24 07:10:44;;;;;;;22.42;10.73;;;;;;;1.52;90.00;93232.47;4839160;29;20077;-60
2021/12/24 07:13:11;;;;;;;21.77;10.93;;;;;;;1.64;89.80;93239.50;4838947;29;20080;-60
2021/12/24 07:15:37;;;;;;;26.20;12.57;;;;;;;1.67;89.40;93242.25;4838769;29;20058;-60
2021/12/24 07:18:04;;;;;;;33.67;17.97;;;;;;;1.66;89.02;93240.69;4837572;29;20105;-59
2021/12/24 07:20:31;;;;;;;30.73;17.08;;;;;;;1.51;89.77;93233.59;4839261;29;20058;-60
2021/12/24 07:22:58;;;;;;;26.08;13.70;;;;;;;1.60;90.01;93239.47;4837802;29;20050;-59
2021/12/24 07:25:25;;;;;;;21.85;8.85;;;;;;;1.83;91.20;93225.72;4836827;29;21158;-59
2021/12/24 07:27:52;;;;;;;19.10;9.00;;;;;;;1.96;91.64;93220.78;4838981;29;20045;-60
2021/12/24 07:30:20;;;;;;;17.27;8.53;;;;;;;2.06;91.53;93216.59;4838721;29;20049;-59
2021/12/24 07:32:47;;;;;;;16.83;8.82;;;;;;;2.12;91.88;93215.84;4838992;29;20057;-60
2021/12/24 07:35:14;;;;;;;15.70;8.05;;;;;;;2.25;91.88;93218.22;4838703;29;20060;-60
2021/12/24 07:37:42;;;;;;;18.15;7.65;;;;;;;2.36;91.90;93219.06;4853066;29;20049;-60
2021/12/24 07:40:10;;;;;;;16.13;7.78;;;;;;;2.47;92.16;93208.25;4838554;29;20082;-60
2021/12/24 07:42:38;;;;;;;18.53;8.33;;;;;;;2.53;91.84;93209.44;4842529;29;20089;-61
2021/12/24 07:45:05;;;;;;;16.48;7.78;;;;;;;2.55;91.86;93215.25;4841853;29;20117;-61
2021/12/24 07:47:37;;;;;;;18.33;8.13;;;;;;;2.60;91.78;93212.94;4841944;29;20050;-60
2021/12/24 07:52:56;;;;;;;21.83;9.43;;;;;;;2.59;92.13;93224.94;4827968;29;20470;-61
2021/12/24 07:55:23;;;;;;;18.63;9.03;;;;;;;2.62;92.65;93230.75;4826230;29;20074;-60
2021/12/24 07:57:51;;;;;;;19.65;9.93;;;;;;;2.67;92.20;93228.44;4805748;29;20493;-60
2021/12/24 08:00:19;;;;;;;18.98;9.48;;;;;;;2.73;91.81;93235.03;4805611;29;21768;-60
2021/12/24 08:02:47;;;;;;;18.38;8.70;;;;;;;2.79;92.27;93235.44;4805577;29;20051;-60
2021/12/24 08:05:15;;;;;;;19.83;9.70;;;;;;;2.78;92.87;93234.69;4808538;29;20047;-60
2021/12/24 08:07:41;;;;;;;17.90;8.77;;;;;;;2.84;92.29;93242.44;4840977;29;20054;-60
2021/12/24 08:10:08;;;;;;;18.50;8.70;;;;;;;2.77;93.55;93243.97;4855305;29;20056;-60
2021/12/24 08:12:35;;;;;;;20.50;10.00;;;;;;;2.92;93.38;93249.44;4840602;29;20054;-60
2021/12/24 08:15:04;;;;;;;25.58;11.93;;;;;;;2.98;92.96;93237.84;4841875;29;20398;-59
2021/12/24 08:17:31;;;;;;;28.50;10.82;;;;;;;2.90;93.26;93255.25;4842103;29;20054;-60
2021/12/24 08:19:58;;;;;;;25.23;11.27;;;;;;;3.00;93.39;93251.00;4842118;29;20053;-60
2021/12/24 08:22:25;;;;;;;20.33;10.52;;;;;;;3.10;92.79;93250.25;4841311;29;20480;-59
2021/12/24 08:24:52;;;;;;;21.02;10.45;;;;;;;3.07;92.85;93245.59;4841661;29;20049;-60
2021/12/24 08:27:21;;;;;;;21.05;9.65;;;;;;;3.03;93.15;93241.34;4841267;29;20049;-59
2021/12/24 08:29:48;;;;;;;22.20;11.95;;;;;;;3.06;92.71;93245.97;4841602;29;20054;-59
2021/12/24 08:32:15;;;;;;;21.70;9.70;;;;;;;3.04;93.14;93243.66;4840819;29;20042;-62
2021/12/24 08:34:43;;;;;;;17.52;8.90;;;;;;;3.07;92.96;93245.59;4841429;29;20050;-61
2021/12/24 08:37:10;;;;;;;17.92;8.98;;;;;;;3.06;93.29;93244.06;4841285;29;20073;-59
2021/12/24 08:39:37;;;;;;;23.88;9.90;;;;;;;3.06;93.25;93243.25;4855249;29;20054;-59
2021/12/24 08:42:04;;;;;;;23.35;10.45;;;;;;;3.11;93.32;93240.19;4855176;29;20050;-59
2021/12/24 08:44:31;;;;;;;27.33;10.73;;;;;;;3.10;93.31;93235.91;4841252;29;20068;-59
2021/12/24 08:47:01;;;;;;;21.85;10.68;;;;;;;3.07;93.66;93239.41;4841173;29;20050;-59
2021/12/24 08:49:29;;;;;;;23.33;10.88;;;;;;;3.09;94.04;93237.84;4840865;29;20788;-59
2021/12/24 08:51:56;;;;;;;20.88;10.00;;;;;;;3.24;93.60;93243.28;4839175;29;20399;-59
2021/12/24 08:54:24;;;;;;;25.70;12.48;;;;;;;3.36;92.94;93243.72;4816558;29;20145;-59
2021/12/24 08:56:52;;;;;;;25.20;11.40;;;;;;;3.42;92.40;93248.75;4808314;29;20062;-59
2021/12/24 08:59:20;;;;;;;29.98;11.35;;;;;;;3.47;92.22;93238.28;4804705;29;20055;-60
2021/12/24 09:01:47;;;;;;;23.30;10.80;;;;;;;3.46;92.59;93236.75;4804788;29;20489;-60
2021/12/24 09:04:14;;;;;;;21.83;9.82;;;;;;;3.44;92.21;93239.06;4817884;29;20051;-60
2021/12/24 09:06:41;;;;;;;19.45;9.32;;;;;;;3.49;92.24;93227.06;4843375;29;20109;-60
2021/12/24 09:09:10;;;;;;;23.13;10.20;;;;;;;3.46;92.65;93223.19;4840935;29;20054;-60
2021/12/24 09:11:39;;;;;;;23.80;11.27;;;;;;;3.43;93.76;93229.38;4841275;29;20053;-60
2021/12/24 09:14:06;;;;;;;19.48;9.75;;;;;;;3.55;93.08;93234.41;4840735;29;20057;-60
2021/12/24 09:16:35;;;;;;;21.00;9.65;;;;;;;3.65;92.96;93229.38;4841129;29;20057;-60
2021/12/24 09:19:07;;;;;;;22.98;11.68;;;;;;;3.53;94.02;93231.31;4840489;29;20054;-61
2021/12/24 09:21:35;;;;;;;23.10;11.60;;;;;;;3.51;94.09;93233.63;4841381;29;20050;-60
2021/12/24 09:24:06;;;;;;;26.77;12.50;;;;;;;3.53;94.08;93230.53;4839135;29;20049;-60
2021/12/24 09:26:33;;;;;;;26.27;12.77;;;;;;;3.71;93.05;93231.31;4840920;29;20076;-61
2021/12/24 09:29:03;;;;;;;29.23;13.75;;;;;;;3.75;92.82;93234.81;4839093;29;20050;-60
2021/12/24 09:31:30;;;;;;;27.90;13.70;;;;;;;3.55;93.30;93234.41;4840717;29;20061;-60
2021/12/24 09:33:57;;;;;;;29.20;13.00;;;;;;;3.56;93.88;93233.25;4839430;29;20061;-60
2021/12/24 09:36:28;;;;;;;24.80;12.38;;;;;;;3.51;94.33;93232.88;4840069;29;20097;-60
2021/12/24 09:39:01;;;;;;;25.90;11.50;;;;;;;3.46;94.60;93228.63;4840549;29;20065;-60
2021/12/24 09:41:28;;;;;;;22.40;11.55;;;;;;;3.54;93.79;93226.66;4839803;29;21725;-60
2021/12/24 09:43:58;;;;;;;24.17;11.90;;;;;;;3.58;94.58;93217.38;4840506;29;20126;-60
2021/12/24 09:46:29;;;;;;;23.13;10.80;;;;;;;3.60;94.34;93215.03;4840040;29;20048;-60
2021/12/24 09:48:58;;;;;;;22.25;10.10;;;;;;;3.66;94.14;93218.13;4840279;29;20050;-60
2021/12/24 09:51:26;;;;;;;21.45;10.55;;;;;;;3.53;94.78;93212.31;4839724;29;20049;-60
2021/12/24 09:53:55;;;;;;;21.98;10.35;;;;;;;3.59;95.15;93208.06;4840253;29;20077;-60
2021/12/24 09:56:23;;;;;;;22.88;11.43;;;;;;;3.67;94.52;93214.25;4839880;29;20046;-60
2021/12/24 09:58:50;;;;;;;26.60;11.70;;;;;;;3.71;95.08;93215.03;4840174;29;20076;-60
2021/12/24 10:01:28;;;;;;;30.60;12.43;;;;;;;3.74;94.94;93210.75;4839988;29;20050;-60
2021/12/24 10:04:04;;;;;;;23.77;10.45;;;;;;;3.64;95.15;93204.16;4839766;29;20054;-60
2021/12/24 10:06:31;;;;;;;23.30;10.85;;;;;;;3.56;96.33;93208.06;4839375;29;20420;-60
2021/12/24 10:09:00;;;;;;;27.70;12.60;;;;;;;3.58;95.79;93201.09;4838520;29;20054;-61
2021/12/24 10:11:31;;;;;;;24.03;10.83;;;;;;;3.64;96.07;93196.03;4838556;29;20355;-60
2021/12/24 10:14:05;;;;;;;35.08;12.43;;;;;;;3.72;96.38;93192.19;4839981;29;20046;-61
2021/12/24 10:16:32;;;;;;;25.75;11.95;;;;;;;3.82;95.97;93184.38;4839083;29;20046;-60
2021/12/24 10:19:00;;;;;;;23.58;10.90;;;;;;;3.86;95.00;93191.34;4839384;29;20133;-58
2021/12/24 10:21:30;;;;;;;24.15;11.50;;;;;;;3.94;95.21;93184.78;4840037;29;20064;-60
2021/12/24 10:24:03;;;;;;;25.30;11.03;;;;;;;4.05;95.32;93189.41;4839743;29;20072;-61
2021/12/24 10:26:32;;;;;;;20.80;9.70;;;;;;;4.04;95.02;93194.03;4839087;29;21067;-60
2021/12/24 10:29:12;;;;;;;21.98;10.43;;;;;;;4.12;94.95;93181.22;4839736;29;20500;-60
2021/12/24 10:31:45;;;;;;;23.65;10.40;;;;;;;4.03;94.91;93187.06;4823901;29;20615;-61
2021/12/24 10:34:23;;;;;;;21.73;10.60;;;;;;;4.21;93.53;93187.03;4811570;29;20058;-60
2021/12/24 10:36:58;;;;;;;20.47;10.43;;;;;;;4.19;94.04;93178.50;4821387;29;20107;-60
2021/12/24 10:39:50;;;;;;;25.02;11.30;;;;;;;4.22;93.82;93183.13;4820743;29;20048;-61
2021/12/24 10:42:37;;;;;;;22.85;12.50;;;;;;;4.20;93.02;93175.41;4821390;29;20530;-60
2021/12/24 10:45:10;;;;;;;26.63;13.55;;;;;;;4.08;93.58;93167.66;4820696;29;20062;-60
2021/12/24 10:47:40;;;;;;;27.15;13.10;;;;;;;4.18;93.62;93166.84;4821667;29;20047;-60
2021/12/24 10:50:30;;;;;;;40.37;20.53;;;;;;;4.05;93.75;93165.72;4821233;29;20050;-62
2021/12/24 10:53:16;;;;;;;32.45;14.80;;;;;;;4.21;93.40;93168.00;4821415;29;20049;-60
2021/12/24 10:55:51;;;;;;;27.67;14.25;;;;;;;4.31;92.93;93177.28;4820544;29;21755;-60
2021/12/24 10:58:22;;;;;;;23.98;12.90;;;;;;;4.44;93.32;93164.81;4820972;29;20057;-60
2021/12/24 11:00:52;;;;;;;47.00;18.48;;;;;;;4.36;93.31;93171.44;4821124;29;20046;-60
2021/12/24 11:03:22;;;;;;;32.40;15.83;;;;;;;4.35;93.44;93172.63;4821010;29;20497;-60
2021/12/24 11:05:56;;;;;;;20.00;11.20;;;;;;;4.15;94.51;93173.06;4827266;29;20050;-61
2021/12/24 11:08:25;;;;;;;21.50;12.77;;;;;;;4.34;94.72;93174.53;4839015;29;20488;-60
2021/12/24 11:10:55;;;;;;;21.08;11.65;;;;;;;4.33;94.74;93159.44;4837911;29;20062;-61
2021/12/24 11:13:30;;;;;;;18.98;10.50;;;;;;;4.22;94.03;93169.56;4838816;29;20053;-61
2021/12/24 11:15:58;;;;;;;21.33;11.37;;;;;;;4.35;93.77;93164.47;4839412;29;20064;-61
2021/12/24 11:18:28;;;;;;;34.25;13.73;;;;;;;4.34;94.12;93160.97;4838604;29;20241;-60
2021/12/24 11:21:10;;;;;;;25.65;11.98;;;;;;;4.47;93.34;93155.88;4839273;29;20053;-60
2021/12/24 11:23:40;;;;;;;25.27;11.25;;;;;;;4.48;93.44;93145.78;4838390;29;21691;-60
2021/12/24 11:26:13;;;;;;;23.88;11.30;;;;;;;4.55;92.33;93138.38;4838530;29;20050;-60
2021/12/24 11:28:41;;;;;;;32.10;12.63;;;;;;;4.43;93.13;93135.31;4839220;29;20046;-60
2021/12/24 11:31:17;;;;;;;26.70;11.13;;;;;;;4.58;92.79;93134.84;4827736;29;20068;-60
2021/12/24 11:33:45;;;;;;;32.22;12.88;;;;;;;4.63;92.79;93143.75;4807710;29;20058;-60
2021/12/24 11:36:16;;;;;;;35.55;12.88;;;;;;;4.65;93.18;93136.78;4820553;29;20046;-60
2021/12/24 11:39:02;;;;;;;23.70;10.68;;;;;;;4.52;93.54;93122.84;4821029;29;20052;-61
2021/12/24 11:41:31;;;;;;;22.73;10.60;;;;;;;4.44;95.07;93120.56;4820193;29;20609;-61
2021/12/24 11:44:04;;;;;;;29.88;11.82;;;;;;;4.28;94.93;93119.09;4820719;29;20055;-60
2021/12/24 11:46:34;;;;;;;37.90;17.38;;;;;;;4.25;95.54;93109.03;4818780;29;20235;-61
2021/12/24 11:49:01;;;;;;;28.20;14.02;;;;;;;4.40;94.73;93112.44;4820179;29;20426;-59
2021/12/24 11:51:40;;;;;;;26.98;12.38;;;;;;;4.43;95.00;93110.88;4820796;29;20054;-60
2021/12/24 11:54:08;;;;;;;26.37;12.10;;;;;;;4.40;95.27;93107.00;4819961;29;20054;-60
2021/12/24 11:56:55;;;;;;;22.58;10.10;;;;;;;4.42;94.87;93112.03;4820585;29;20514;-61
2021/12/24 11:59:39;;;;;;;22.95;11.35;;;;;;;4.39;94.61;93119.06;4820283;29;20046;-62
2021/12/24 12:02:07;;;;;;;19.55;9.77;;;;;;;4.34;94.95;93101.22;4820110;29;20063;-60
2021/12/24 12:04:34;;;;;;;19.48;10.02;;;;;;;4.23;95.05;93102.44;4819669;29;20046;-60
2021/12/24 12:07:17;;;;;;;18.77;10.57;;;;;;;4.35;95.53;93099.28;4835170;29;20050;-60
2021/12/24 12:09:46;;;;;;;17.45;9.98;;;;;;;4.33;95.10;93090.75;4839107;29;20126;-60
2021/12/24 12:12:16;;;;;;;18.85;9.77;;;;;;;4.33;95.55;93085.31;4838542;29;20426;-60
2021/12/24 12:14:43;;;;;;;20.48;10.80;;;;;;;4.45;95.28;93081.34;4853009;29;20066;-60
2021/12/24 12:17:22;;;;;;;20.13;11.38;;;;;;;4.63;93.96;93075.81;4837761;29;20056;-60
2021/12/24 12:19:58;;;;;;;17.60;9.63;;;;;;;4.70;93.65;93073.06;4838610;29;20053;-60
2021/12/24 12:25:10;;;;;;;19.05;10.57;;;;;;;4.78;92.88;93074.56;4838048;29;20423;-61
2021/12/24 12:27:40;;;;;;;18.58;9.68;;;;;;;4.84;93.44;93074.91;4842080;29;20046;-61
2021/12/24 12:30:16;;;;;;;19.38;9.60;;;;;;;4.94;92.57;93076.78;4841471;29;20045;-60
2021/12/24 12:32:43;;;;;;;19.13;9.30;;;;;;;4.87;91.79;93071.38;4808416;29;20051;-60
2021/12/24 12:35:10;;;;;;;21.80;10.40;;;;;;;4.67;92.55;93071.13;4820800;29;20065;-60
2021/12/24 12:37:51;;;;;;;19.45;10.07;;;;;;;4.52;93.05;93079.38;4823732;29;20100;-60
2021/12/24 12:40:18;;;;;;;23.13;10.70;;;;;;;4.51;94.03;93082.50;4823064;29;20497;-61
2021/12/24 12:42:56;;;;;;;21.73;10.40;;;;;;;4.44;93.43;93077.88;4823679;29;20054;-61
2021/12/24 12:45:26;;;;;;;20.63;10.13;;;;;;;4.48;93.80;93072.44;4822956;29;20504;-61
2021/12/24 12:47:55;;;;;;;21.92;11.25;;;;;;;4.47;93.25;93079.81;4823016;29;20058;-61
2021/12/24 12:50:24;;;;;;;22.00;12.68;;;;;;;4.55;93.46;93059.56;4822878;29;20059;-61
2021/12/24 12:53:11;;;;;;;20.88;11.13;;;;;;;4.56;93.10;93063.81;4823145;29;20046;-61
2021/12/24 12:55:40;;;;;;;23.42;11.27;;;;;;;4.54;93.38;93054.53;4822383;29;20728;-60
2021/12/24 12:58:20;;;;;;;22.20;12.00;;;;;;;4.58;93.63;93050.63;4821910;29;20118;-60
2021/12/24 13:01:07;;;;;;;19.17;10.60;;;;;;;4.63;92.67;93056.78;4823024;29;20054;-61
2021/12/24 13:03:57;;;;;;;18.55;10.50;;;;;;;4.38;93.44;93055.78;4822222;29;20851;-61
2021/12/24 13:06:41;;;;;;;15.93;8.98;;;;;;;4.23;94.54;93050.84;4832590;29;20464;-60
2021/12/24 13:09:22;;;;;;;18.55;10.73;;;;;;;4.16;95.09;93051.63;4840574;29;20054;-59
2021/12/24 13:11:52;;;;;;;20.73;10.83;;;;;;;4.30;94.53;93042.66;4841391;29;20058;-60
2021/12/24 13:14:22;;;;;;;18.77;10.00;;;;;;;4.42;93.81;93038.69;4840871;29;20054;-59
2021/12/24 13:22:28;;;;;;;22.70;11.45;;;;;;;4.60;92.46;93036.63;4840798;29;20056;-59
2021/12/24 13:25:13;;;;;;;25.13;11.70;;;;;;;4.59;92.57;93035.88;4840456;29;20152;-60
2021/12/24 13:27:48;;;;;;;22.88;12.20;;;;;;;4.74;92.13;93036.53;4840136;29;20046;-59